Time;durP1;ratioP1;P1;durP2;ratioP2;P2;SDS_P1;SDS_P2;PMS_P1;PMS_P2;Temp;Humidity;BMP_temperature;BMP_pressure;BME280_temperature;BME280_humidity;BME280_pressure;Samples;Min_cycle;Max_cycle;Signal;HPM_P1;HPM_P2
2024/02/26 00:00:11;;;;;;;4.47;2.53;;;;;;;6.76;52.07;93675.38;5015955;28;20182;-78
2024/02/26 00:02:37;;;;;;;3.83;2.13;;;;;;;6.70;52.06;93673.47;5016587;28;20201;-77
2024/02/26 00:05:07;;;;;;;4.20;2.50;;;;;;;6.72;52.12;93676.69;5012180;28;20699;-77
2024/02/26 00:07:32;;;;;;;2.10;1.60;;;;;;;6.73;51.62;93668.00;5017929;28;20668;-78
2024/02/26 00:09:57;;;;;;;3.13;1.50;;;;;;;6.81;51.68;93681.66;5016729;28;20213;-78
2024/02/26 00:12:22;;;;;;;1.50;1.40;;;;;;;6.77;51.66;93669.25;5016251;28;20608;-78
2024/02/26 00:14:49;;;;;;;2.03;1.40;;;;;;;6.80;51.33;93674.03;5003373;28;20214;-78
2024/02/26 00:17:15;;;;;;;1.50;1.10;;;;;;;6.87;50.89;93671.59;5002748;28;20187;-78
2024/02/26 00:19:40;;;;;;;1.80;1.40;;;;;;;6.96;50.95;93673.16;5009445;28;20201;-77
2024/02/26 00:22:06;;;;;;;1.87;1.33;;;;;;;6.93;50.70;93679.47;5000527;28;20182;-77
2024/02/26 00:24:31;;;;;;;1.60;1.50;;;;;;;6.91;50.47;93676.25;5020640;28;20221;-77
2024/02/26 00:26:56;;;;;;;1.63;1.30;;;;;;;6.78;50.87;93678.59;5017913;28;20226;-78
2024/02/26 00:29:22;;;;;;;1.93;1.60;;;;;;;6.98;50.79;93684.09;5016325;28;20218;-77
2024/02/26 00:31:47;;;;;;;2.00;1.60;;;;;;;6.76;50.95;93683.13;5001482;28;20531;-78
2024/02/26 00:34:13;;;;;;;1.77;1.30;;;;;;;6.89;51.05;93680.78;5015694;28;20210;-78
2024/02/26 00:36:38;;;;;;;2.70;1.70;;;;;;;6.86;51.18;93675.97;5017979;28;20186;-78
2024/02/26 00:39:03;;;;;;;2.60;1.63;;;;;;;6.75;51.16;93677.16;5000058;28;20187;-77
2024/02/26 00:41:29;;;;;;;1.50;1.30;;;;;;;6.91;50.82;93678.03;5016327;28;20203;-78
2024/02/26 00:43:55;;;;;;;3.03;1.60;;;;;;;6.86;50.85;93683.69;5017997;28;20289;-77
2024/02/26 00:46:20;;;;;;;2.30;1.63;;;;;;;6.89;51.12;93685.97;5014878;28;20194;-79
2024/02/26 00:48:45;;;;;;;2.17;1.60;;;;;;;6.88;51.76;93666.25;5019107;28;20264;-78
2024/02/26 00:51:11;;;;;;;2.10;1.57;;;;;;;7.00;52.20;93667.50;5005147;28;20182;-77
2024/02/26 00:53:36;;;;;;;2.03;1.40;;;;;;;6.98;53.03;93672.03;4999678;28;20211;-78
2024/02/26 00:56:01;;;;;;;2.00;1.50;;;;;;;6.98;53.03;93682.34;5012523;28;20684;-77
2024/02/26 00:58:27;;;;;;;2.63;1.30;;;;;;;7.00;52.91;93688.13;5016941;28;20621;-77
2024/02/26 01:00:52;;;;;;;1.57;1.43;;;;;;;6.90;52.62;93684.97;5016186;28;20265;-78
2024/02/26 01:03:18;;;;;;;2.03;1.47;;;;;;;6.87;52.43;93674.97;5015462;28;20277;-78
2024/02/26 01:05:44;;;;;;;1.73;1.27;;;;;;;7.00;51.61;93667.50;4995602;28;20191;-77
2024/02/26 01:08:09;;;;;;;1.77;1.30;;;;;;;6.95;52.48;93671.56;5018073;28;20560;-78
2024/02/26 01:10:34;;;;;;;1.60;1.50;;;;;;;6.79;52.58;93667.28;5002658;28;20633;-78
2024/02/26 01:13:00;;;;;;;2.17;1.70;;;;;;;6.86;52.36;93667.41;5002489;28;20194;-78
2024/02/26 01:15:26;;;;;;;2.07;1.40;;;;;;;6.90;52.44;93668.69;5016652;28;20362;-78
2024/02/26 01:17:52;;;;;;;1.50;1.30;;;;;;;6.92;53.03;93677.88;5021045;28;20353;-77
2024/02/26 01:20:17;;;;;;;3.23;1.30;;;;;;;6.96;52.48;93686.84;5016040;28;20948;-78
2024/02/26 01:22:43;;;;;;;2.43;1.63;;;;;;;6.90;53.53;93691.91;4997758;28;20218;-77
2024/02/26 01:25:09;;;;;;;1.97;1.33;;;;;;;6.70;52.75;93688.94;5009501;28;20294;-79
2024/02/26 01:27:35;;;;;;;3.57;1.50;;;;;;;6.81;52.90;93701.47;5018479;28;20187;-78
2024/02/26 01:30:03;;;;;;;3.27;1.50;;;;;;;6.65;52.88;93671.41;5018043;28;20953;-78
2024/02/26 01:32:29;;;;;;;2.00;1.30;;;;;;;6.84;52.63;93687.44;5016399;28;20215;-78
2024/02/26 01:34:54;;;;;;;2.37;1.20;;;;;;;6.89;52.51;93700.59;5019558;28;20238;-78
2024/02/26 01:37:20;;;;;;;1.53;1.10;;;;;;;6.79;52.75;93685.34;5019532;28;20617;-79
2024/02/26 01:39:45;;;;;;;1.57;0.90;;;;;;;6.77;54.53;93695.03;5013341;28;20242;-77
2024/02/26 01:42:11;;;;;;;1.13;1.03;;;;;;;7.05;54.39;93705.69;5022238;28;20225;-78
2024/02/26 01:44:37;;;;;;;1.70;1.30;;;;;;;6.99;54.09;93711.53;5020233;28;20202;-78
2024/02/26 01:47:04;;;;;;;1.70;0.80;;;;;;;6.93;53.05;93704.47;5019615;28;20194;-78
2024/02/26 01:49:29;;;;;;;3.47;1.47;;;;;;;6.86;53.17;93703.53;5020498;28;20564;-78
2024/02/26 01:51:56;;;;;;;1.07;1.07;;;;;;;6.73;53.88;93709.25;5019386;28;20252;-79
2024/02/26 01:54:21;;;;;;;0.87;0.87;;;;;;;6.83;53.14;93717.59;5016011;28;20214;-78
2024/02/26 01:56:46;;;;;;;1.80;1.27;;;;;;;6.93;53.65;93715.59;5005259;28;20214;-78
2024/02/26 01:59:12;;;;;;;2.43;1.20;;;;;;;6.87;52.97;93725.78;5012992;28;20193;-78
2024/02/26 02:01:39;;;;;;;2.20;1.20;;;;;;;6.71;53.08;93731.81;5007338;28;20668;-78
2024/02/26 02:04:04;;;;;;;1.20;1.10;;;;;;;6.88;54.52;93720.44;5002709;28;20211;-78
2024/02/26 02:06:30;;;;;;;3.73;1.00;;;;;;;6.78;54.74;93718.06;5023299;28;20179;-78
2024/02/26 02:08:56;;;;;;;1.30;1.20;;;;;;;6.95;56.88;93723.16;5020049;28;20207;-78
2024/02/26 02:11:21;;;;;;;1.00;0.70;;;;;;;7.00;57.98;93713.16;5018849;28;20194;-78
2024/02/26 02:13:46;;;;;;;0.80;0.77;;;;;;;7.06;58.72;93715.81;5003764;28;20239;-78
2024/02/26 02:16:12;;;;;;;1.87;0.80;;;;;;;7.10;59.06;93721.47;5019106;28;20206;-77
2024/02/26 02:18:37;;;;;;;1.93;0.80;;;;;;;7.05;59.23;93726.31;5003585;28;20191;-78
2024/02/26 02:21:03;;;;;;;0.60;0.60;;;;;;;6.98;59.94;93723.66;5003042;28;20580;-77
2024/02/26 02:23:28;;;;;;;0.80;0.80;;;;;;;6.99;59.78;93722.66;5007452;28;20302;-78
2024/02/26 02:25:57;;;;;;;1.17;1.07;;;;;;;6.90;59.95;93712.56;5018469;28;20174;-77
2024/02/26 02:28:23;;;;;;;2.00;1.10;;;;;;;6.88;61.24;93722.22;5021060;28;20184;-77
2024/02/26 02:30:49;;;;;;;0.80;0.80;;;;;;;7.00;61.79;93721.69;5016960;28;20212;-79
2024/02/26 02:33:15;;;;;;;1.30;0.97;;;;;;;6.98;61.56;93723.66;5005946;28;20637;-78
2024/02/26 02:35:41;;;;;;;1.27;0.90;;;;;;;6.76;61.75;93724.38;5019152;28;20210;-77
2024/02/26 02:38:06;;;;;;;1.77;1.20;;;;;;;6.60;62.53;93724.47;5018488;28;20187;-78
2024/02/26 02:40:32;;;;;;;1.10;1.00;;;;;;;6.50;63.56;93725.47;5018772;28;20194;-77
2024/02/26 02:42:57;;;;;;;1.47;1.30;;;;;;;6.65;63.93;93727.34;5021454;28;20218;-78
2024/02/26 02:45:22;;;;;;;1.23;1.10;;;;;;;6.52;66.02;93720.94;5017770;28;20203;-78
2024/02/26 02:47:47;;;;;;;1.37;0.97;;;;;;;6.25;67.79;93721.34;5017789;28;20207;-79
2024/02/26 02:50:13;;;;;;;2.67;1.10;;;;;;;6.47;68.07;93710.34;5016834;28;20202;-77
2024/02/26 02:52:38;;;;;;;1.57;1.00;;;;;;;6.51;68.20;93716.75;5019410;28;20187;-77
2024/02/26 02:55:04;;;;;;;1.33;0.90;;;;;;;6.46;69.52;93706.16;5016660;28;20214;-78
2024/02/26 02:57:30;;;;;;;1.27;1.13;;;;;;;6.44;70.82;93710.66;5018389;28;20201;-78
2024/02/26 02:59:55;;;;;;;1.40;1.00;;;;;;;6.50;71.08;93707.41;5017606;28;20690;-78
2024/02/26 03:02:20;;;;;;;1.60;1.10;;;;;;;6.39;72.21;93702.63;5004267;28;20199;-78
2024/02/26 03:04:46;;;;;;;0.90;0.90;;;;;;;6.42;72.76;93704.06;5019848;28;20208;-78
2024/02/26 03:07:11;;;;;;;1.27;1.00;;;;;;;6.35;73.84;93690.22;5021895;28;20215;-78
2024/02/26 03:09:36;;;;;;;1.97;0.90;;;;;;;6.42;73.45;93697.13;5018371;28;20205;-77
2024/02/26 03:12:01;;;;;;;1.23;0.90;;;;;;;6.41;74.65;93698.09;5011172;28;20699;-77
2024/02/26 03:14:27;;;;;;;0.80;0.80;;;;;;;6.31;74.79;93691.53;5017138;28;21194;-77
2024/02/26 03:16:55;;;;;;;0.90;0.90;;;;;;;6.29;75.69;93694.28;5007476;28;20943;-77
2024/02/26 03:19:21;;;;;;;0.97;0.97;;;;;;;6.36;74.98;93689.25;5011606;28;20186;-77
2024/02/26 03:21:46;;;;;;;2.60;0.93;;;;;;;6.29;75.85;93680.59;5016046;28;20336;-77
2024/02/26 03:24:12;;;;;;;1.03;0.87;;;;;;;6.24;76.04;93684.47;5005456;28;20621;-78
2024/02/26 03:26:38;;;;;;;0.70;0.60;;;;;;;6.10;77.04;93686.94;5006762;28;20292;-78
2024/02/26 03:29:03;;;;;;;0.97;0.80;;;;;;;6.36;76.19;93684.94;5000275;28;20191;-77
2024/02/26 03:31:29;;;;;;;0.80;0.77;;;;;;;6.45;76.11;93677.97;5017485;28;20613;-78
2024/02/26 03:33:54;;;;;;;0.90;0.90;;;;;;;6.45;76.09;93673.59;5004844;28;20211;-78
2024/02/26 03:36:21;;;;;;;1.07;0.90;;;;;;;6.34;77.44;93675.72;5003828;28;20699;-78
2024/02/26 03:38:46;;;;;;;1.50;0.80;;;;;;;6.35;77.30;93672.97;5018484;28;20209;-77
2024/02/26 03:41:12;;;;;;;0.73;0.70;;;;;;;6.31;77.59;93666.56;4996998;28;20652;-77
2024/02/26 03:43:37;;;;;;;1.07;0.80;;;;;;;6.29;77.92;93655.63;5016304;28;20748;-78
2024/02/26 03:46:03;;;;;;;1.57;1.00;;;;;;;6.31;77.40;93670.91;5018226;28;20178;-78
2024/02/26 03:48:28;;;;;;;1.23;0.90;;;;;;;6.32;77.92;93660.44;5001099;28;20714;-78
2024/02/26 03:50:53;;;;;;;0.70;0.70;;;;;;;6.29;77.90;93647.09;5016006;28;20186;-77
2024/02/26 03:53:19;;;;;;;1.10;1.00;;;;;;;6.29;78.00;93642.75;5003067;28;20656;-78
2024/02/26 03:55:44;;;;;;;1.10;1.00;;;;;;;6.19;79.15;93653.25;5018617;28;20217;-78
2024/02/26 03:58:09;;;;;;;1.00;1.00;;;;;;;6.15;78.64;93638.28;5004717;28;20664;-77
2024/02/26 04:00:34;;;;;;;1.03;0.93;;;;;;;6.19;78.52;93645.53;5016140;28;20231;-77
2024/02/26 04:03:00;;;;;;;1.20;1.03;;;;;;;6.09;78.41;93654.41;5017931;28;20191;-78
2024/02/26 04:05:25;;;;;;;1.63;1.20;;;;;;;6.23;78.01;93651.94;4999024;28;20203;-77
2024/02/26 04:07:50;;;;;;;1.63;1.10;;;;;;;6.20;78.07;93654.84;5019403;28;20224;-78
2024/02/26 04:10:16;;;;;;;1.87;1.10;;;;;;;6.21;78.00;93653.88;5015634;28;20183;-78
2024/02/26 04:12:42;;;;;;;1.20;0.83;;;;;;;6.29;78.14;93658.19;5018189;28;20626;-77
2024/02/26 04:15:10;;;;;;;1.07;0.80;;;;;;;6.23;78.52;93654.50;5016412;28;20265;-77
2024/02/26 04:17:36;;;;;;;1.20;1.10;;;;;;;6.23;78.02;93644.19;5006959;28;20253;-78
2024/02/26 04:20:03;;;;;;;1.13;0.90;;;;;;;6.19;78.29;93663.56;4999663;28;20527;-78
2024/02/26 04:22:28;;;;;;;1.13;1.07;;;;;;;6.13;78.57;93659.06;5016696;28;20187;-77
2024/02/26 04:24:53;;;;;;;1.00;0.90;;;;;;;6.17;77.85;93667.25;5018028;28;20257;-77
2024/02/26 04:27:19;;;;;;;1.10;1.00;;;;;;;6.16;77.72;93669.03;5004722;28;20670;-78
2024/02/26 04:29:44;;;;;;;1.20;1.10;;;;;;;6.07;77.15;93667.44;4998903;28;20204;-77
2024/02/26 04:32:10;;;;;;;1.27;1.10;;;;;;;6.09;77.23;93669.84;4996915;28;20199;-77
2024/02/26 04:34:35;;;;;;;1.10;1.00;;;;;;;6.07;77.38;93670.03;5000327;28;20223;-77
2024/02/26 04:37:00;;;;;;;1.43;1.10;;;;;;;6.12;77.09;93666.97;5018745;28;20202;-76
2024/02/26 04:39:26;;;;;;;1.67;1.13;;;;;;;6.12;77.02;93669.53;5002494;28;20198;-76
2024/02/26 04:41:51;;;;;;;1.00;0.83;;;;;;;5.88;77.48;93666.03;5009290;28;20268;-78
2024/02/26 04:44:16;;;;;;;1.17;1.00;;;;;;;5.94;77.49;93674.91;5010222;28;20624;-77
2024/02/26 04:46:42;;;;;;;1.23;0.90;;;;;;;5.86;77.70;93669.75;5003479;28;20189;-76
2024/02/26 04:49:07;;;;;;;1.80;1.10;;;;;;;6.02;76.78;93668.94;5008763;28;20190;-76
2024/02/26 04:51:32;;;;;;;1.20;1.10;;;;;;;5.98;77.15;93673.59;5016359;28;20262;-77
2024/02/26 04:53:58;;;;;;;1.30;1.00;;;;;;;5.97;76.70;93677.16;5015422;28;20222;-78
2024/02/26 04:56:23;;;;;;;0.80;0.80;;;;;;;6.05;76.41;93673.75;5003708;28;20844;-78
2024/02/26 04:58:48;;;;;;;2.40;1.00;;;;;;;6.07;76.43;93672.59;5019346;28;20241;-77
2024/02/26 05:01:16;;;;;;;1.37;1.00;;;;;;;6.10;75.97;93672.28;5009159;28;20257;-77
2024/02/26 05:03:42;;;;;;;1.10;0.90;;;;;;;5.97;76.59;93685.69;5016709;28;20209;-77
2024/02/26 05:06:08;;;;;;;0.73;0.70;;;;;;;6.05;76.64;93695.16;4995289;28;20245;-78
2024/02/26 05:08:35;;;;;;;2.17;0.90;;;;;;;6.06;76.80;93699.34;5003984;28;20257;-79
2024/02/26 05:11:02;;;;;;;1.73;0.70;;;;;;;6.01;76.57;93705.94;5005317;28;20298;-78
2024/02/26 05:13:28;;;;;;;0.90;0.80;;;;;;;6.03;75.92;93704.84;5019923;28;20668;-78
2024/02/26 05:15:53;;;;;;;0.70;0.70;;;;;;;6.09;75.98;93705.94;5018369;28;20231;-77
2024/02/26 05:18:18;;;;;;;1.40;1.10;;;;;;;6.30;75.15;93708.78;5006482;28;20687;-76
2024/02/26 05:20:44;;;;;;;1.83;0.90;;;;;;;6.35;74.41;93710.84;5021514;28;20240;-77
2024/02/26 05:23:09;;;;;;;1.13;0.83;;;;;;;6.34;75.00;93704.88;5018015;28;20215;-76
2024/02/26 05:25:34;;;;;;;0.80;0.80;;;;;;;6.20;75.83;93713.34;5021150;28;20218;-76
2024/02/26 05:28:00;;;;;;;1.10;0.93;;;;;;;6.37;75.44;93714.88;5022999;28;20732;-78
2024/02/26 05:30:27;;;;;;;0.93;0.90;;;;;;;6.27;76.07;93718.59;5021191;28;20198;-76
2024/02/26 05:32:53;;;;;;;1.10;1.00;;;;;;;6.14;76.19;93719.94;5019456;28;20260;-76
2024/02/26 05:35:18;;;;;;;1.57;1.00;;;;;;;6.19;76.43;93724.63;5019894;28;20297;-77
2024/02/26 05:37:43;;;;;;;1.03;0.90;;;;;;;6.37;75.38;93721.81;5019911;28;20566;-78
2024/02/26 05:40:09;;;;;;;2.20;1.40;;;;;;;6.29;75.98;93727.00;5004044;28;20246;-76
2024/02/26 05:42:34;;;;;;;1.30;1.20;;;;;;;6.32;75.80;93727.47;5027645;28;20206;-77
2024/02/26 05:45:04;;;;;;;2.87;1.20;;;;;;;6.30;76.69;93724.25;5021501;28;20207;-77
2024/02/26 05:47:30;;;;;;;0.93;0.90;;;;;;;6.34;75.76;93716.97;5020822;28;20242;-77
2024/02/26 05:49:58;;;;;;;1.53;1.00;;;;;;;6.29;76.47;93722.66;5001484;28;20226;-76
2024/02/26 05:52:23;;;;;;;1.30;1.03;;;;;;;6.24;76.55;93705.09;5016692;28;20198;-77
2024/02/26 05:54:49;;;;;;;0.67;0.67;;;;;;;6.30;76.22;93713.13;5023609;28;20206;-77
2024/02/26 05:57:14;;;;;;;1.13;0.93;;;;;;;6.32;76.49;93701.69;5013047;28;20195;-78
2024/02/26 05:59:39;;;;;;;1.30;0.83;;;;;;;6.18;77.02;93705.78;5020168;28;20194;-76
2024/02/26 06:02:05;;;;;;;0.70;0.70;;;;;;;6.23;76.95;93706.06;5018647;28;20670;-77
2024/02/26 06:04:30;;;;;;;1.40;0.90;;;;;;;6.19;77.39;93709.94;5022723;28;20248;-76
2024/02/26 06:06:56;;;;;;;2.70;0.80;;;;;;;6.20;76.95;93713.34;5017120;28;20190;-78
2024/02/26 06:09:22;;;;;;;0.60;0.60;;;;;;;6.14;77.38;93709.63;5022890;28;20183;-76
2024/02/26 06:11:48;;;;;;;0.77;0.77;;;;;;;6.22;77.24;93717.34;5002651;28;20192;-76
2024/02/26 06:14:17;;;;;;;1.17;1.07;;;;;;;6.21;77.62;93720.09;5020484;28;20198;-77
2024/02/26 06:16:43;;;;;;;1.80;1.27;;;;;;;6.05;78.24;93720.13;5015861;28;20827;-77
2024/02/26 06:19:08;;;;;;;0.93;0.90;;;;;;;6.20;77.65;93710.75;5019356;28;20186;-78
2024/02/26 06:21:33;;;;;;;0.87;0.83;;;;;;;6.08;78.48;93719.78;5003023;28;20187;-77
2024/02/26 06:23:59;;;;;;;0.80;0.80;;;;;;;5.77;80.25;93733.34;5015493;28;20256;-77
2024/02/26 06:26:28;;;;;;;1.43;0.97;;;;;;;6.11;79.10;93727.22;5017197;28;20179;-77
2024/02/26 06:28:54;;;;;;;1.13;1.03;;;;;;;5.90;80.28;93736.25;5022051;28;20652;-77
2024/02/26 06:31:22;;;;;;;1.50;1.20;;;;;;;6.11;80.00;93742.66;5018210;28;20201;-79
2024/02/26 06:33:47;;;;;;;1.53;1.17;;;;;;;6.03;79.75;93735.75;5017761;28;20231;-77
2024/02/26 06:36:12;;;;;;;1.63;1.47;;;;;;;6.00;80.64;93743.78;5017884;28;20704;-77
2024/02/26 06:38:38;;;;;;;1.80;1.40;;;;;;;6.06;80.86;93750.06;5020544;28;20179;-77
2024/02/26 06:41:03;;;;;;;1.30;1.20;;;;;;;6.16;80.55;93748.91;5002314;28;20198;-77
2024/02/26 06:43:29;;;;;;;0.87;0.87;;;;;;;6.19;80.32;93747.81;5022614;28;20269;-77
2024/02/26 06:45:54;;;;;;;1.87;1.00;;;;;;;6.08;81.39;93755.88;4999499;28;20208;-77
2024/02/26 06:48:19;;;;;;;1.00;1.00;;;;;;;6.16;80.45;93753.28;5013020;28;20210;-78
2024/02/26 06:50:45;;;;;;;1.13;0.97;;;;;;;6.13;80.76;93757.00;5013594;28;20206;-78
2024/02/26 06:53:10;;;;;;;1.10;0.90;;;;;;;6.14;81.39;93760.38;5018184;28;20541;-77
2024/02/26 06:55:37;;;;;;;1.60;1.50;;;;;;;6.35;80.21;93768.38;5011933;28;20213;-77
2024/02/26 06:58:02;;;;;;;1.03;1.00;;;;;;;6.22;80.90;93761.16;5016886;28;20203;-78
2024/02/26 07:00:28;;;;;;;1.00;0.90;;;;;;;6.24;80.83;93766.16;5000696;28;20563;-78
2024/02/26 07:02:53;;;;;;;1.80;1.00;;;;;;;6.31;81.15;93767.09;5016318;28;20223;-79
2024/02/26 07:05:18;;;;;;;0.97;0.87;;;;;;;6.26;81.20;93769.34;5016584;28;20664;-78
2024/02/26 07:07:44;;;;;;;0.67;0.67;;;;;;;6.30;81.36;93773.22;5017084;28;20187;-79
2024/02/26 07:10:12;;;;;;;1.77;0.80;;;;;;;6.27;81.34;93772.75;5012116;28;20190;-78
2024/02/26 07:12:37;;;;;;;0.90;0.80;;;;;;;6.35;81.17;93773.53;5019830;28;20575;-77
2024/02/26 07:15:03;;;;;;;1.03;0.97;;;;;;;6.30;81.41;93780.16;5015409;28;20207;-79
2024/02/26 07:17:29;;;;;;;1.20;0.80;;;;;;;6.17;82.74;93786.59;5018085;28;20187;-79
2024/02/26 07:19:54;;;;;;;0.93;0.80;;;;;;;6.25;82.92;93788.38;5017372;28;20266;-79
2024/02/26 07:22:20;;;;;;;0.80;0.80;;;;;;;6.40;82.53;93786.75;5013188;28;20302;-79
2024/02/26 07:24:45;;;;;;;1.90;1.00;;;;;;;6.20;83.79;93790.66;5015494;28;20684;-79
2024/02/26 07:27:10;;;;;;;0.70;0.70;;;;;;;6.33;82.94;93796.09;5013758;28;20651;-80
2024/02/26 07:29:36;;;;;;;1.00;0.80;;;;;;;6.30;83.66;93793.84;5025150;28;20183;-81
2024/02/26 07:32:01;;;;;;;1.20;1.00;;;;;;;6.26;83.72;93787.41;5006866;28;20194;-79
2024/02/26 07:34:29;;;;;;;0.90;0.80;;;;;;;6.41;82.90;93793.50;5020890;28;20207;-80
2024/02/26 07:36:57;;;;;;;1.00;0.83;;;;;;;6.25;83.78;93790.94;5014191;28;20199;-80
2024/02/26 07:39:22;;;;;;;1.60;1.00;;;;;;;6.45;82.83;93787.06;5019228;28;20194;-80
2024/02/26 07:41:51;;;;;;;1.30;0.97;;;;;;;6.33;83.40;93790.94;5009279;28;20191;-80
2024/02/26 07:44:16;;;;;;;1.00;0.80;;;;;;;6.33;83.06;93790.94;5008575;28;20862;-80
2024/02/26 07:46:42;;;;;;;1.00;0.90;;;;;;;6.56;82.78;93791.06;5016814;28;20308;-79
2024/02/26 07:49:08;;;;;;;1.07;0.97;;;;;;;6.43;82.73;93788.19;5018492;28;20189;-81
2024/02/26 07:51:33;;;;;;;1.40;1.30;;;;;;;6.52;82.64;93790.56;5005561;28;20175;-80
2024/02/26 07:54:00;;;;;;;0.90;0.90;;;;;;;6.58;81.94;93786.53;5017226;28;20270;-80
2024/02/26 07:56:26;;;;;;;1.00;0.90;;;;;;;6.45;82.16;93788.84;5017813;28;20286;-78
2024/02/26 07:58:51;;;;;;;1.03;0.80;;;;;;;6.74;81.21;93796.00;5014253;28;20659;-79
2024/02/26 08:01:16;;;;;;;1.20;1.10;;;;;;;6.94;81.26;93797.19;5015160;28;20241;-82
2024/02/26 08:03:42;;;;;;;1.40;1.00;;;;;;;7.05;80.89;93799.38;5010429;28;20241;-81
2024/02/26 08:06:08;;;;;;;1.20;1.10;;;;;;;7.04;80.65;93800.38;5002878;28;20175;-80
2024/02/26 08:08:34;;;;;;;0.80;0.80;;;;;;;7.17;80.08;93804.19;5015275;28;20203;-80
2024/02/26 08:10:59;;;;;;;1.20;1.10;;;;;;;7.13;80.47;93797.75;5015637;28;20218;-80
2024/02/26 08:13:25;;;;;;;0.90;0.90;;;;;;;7.06;80.64;93803.59;5015968;28;20270;-80
2024/02/26 08:15:51;;;;;;;1.43;1.10;;;;;;;7.17;80.24;93809.38;5012787;28;20199;-80
2024/02/26 08:18:16;;;;;;;1.00;1.00;;;;;;;7.23;80.02;93800.91;5020670;28;20178;-79
2024/02/26 08:20:41;;;;;;;2.27;1.00;;;;;;;7.07;79.58;93812.97;4997950;28;20179;-78
2024/02/26 08:23:07;;;;;;;1.30;1.20;;;;;;;7.25;79.47;93810.13;5014430;28;20206;-79
2024/02/26 08:25:32;;;;;;;1.23;1.13;;;;;;;7.27;79.76;93815.13;5008438;28;20656;-79
2024/02/26 08:27:57;;;;;;;0.73;0.70;;;;;;;7.28;79.35;93820.09;5018311;28;20240;-79
2024/02/26 08:30:23;;;;;;;0.90;0.83;;;;;;;7.24;79.80;93823.19;5018560;28;20224;-80
2024/02/26 08:32:48;;;;;;;0.70;0.70;;;;;;;7.41;79.18;93814.38;5000051;28;20214;-80
2024/02/26 08:35:14;;;;;;;4.13;0.90;;;;;;;7.44;79.19;93815.84;5009736;28;20209;-79
2024/02/26 08:37:39;;;;;;;8.67;5.60;;;;;;;7.39;79.06;93834.41;5013332;28;20734;-80
2024/02/26 08:40:06;;;;;;;5.13;4.73;;;;;;;7.39;79.17;93822.28;5006150;28;20186;-79
2024/02/26 08:42:31;;;;;;;2.80;2.47;;;;;;;7.35;79.11;93818.47;5013391;28;20225;-80
2024/02/26 08:45:00;;;;;;;1.97;1.83;;;;;;;7.72;77.82;93829.84;5020793;28;20202;-79
2024/02/26 08:47:25;;;;;;;1.93;1.70;;;;;;;7.76;77.83;93835.47;5010406;28;20175;-80
2024/02/26 08:49:50;;;;;;;2.97;2.50;;;;;;;7.75;77.10;93831.28;5015928;28;20183;-79
2024/02/26 08:52:16;;;;;;;3.00;2.80;;;;;;;7.78;77.58;93826.59;5011309;28;20198;-80
2024/02/26 08:54:41;;;;;;;2.00;1.80;;;;;;;7.91;76.95;93828.59;5023930;28;20218;-80
2024/02/26 08:57:06;;;;;;;2.37;2.10;;;;;;;8.16;75.63;93827.41;5011444;28;20297;-80
2024/02/26 08:59:32;;;;;;;2.03;1.50;;;;;;;8.15;75.62;93823.22;5021179;28;20219;-79
2024/02/26 09:01:57;;;;;;;1.57;1.33;;;;;;;8.32;74.33;93831.66;5013187;28;20183;-79
2024/02/26 09:04:22;;;;;;;1.20;1.10;;;;;;;8.28;74.20;93834.75;5006956;28;20198;-79
2024/02/26 09:06:51;;;;;;;0.87;0.87;;;;;;;8.44;73.69;93832.84;5004750;28;20206;-81
2024/02/26 09:09:16;;;;;;;1.30;1.20;;;;;;;8.63;73.36;93828.13;5010049;28;20209;-80
2024/02/26 09:11:41;;;;;;;1.63;1.10;;;;;;;8.64;73.66;93833.13;5016144;28;20214;-78
2024/02/26 09:14:07;;;;;;;1.30;1.20;;;;;;;8.52;73.18;93827.59;5024817;28;20206;-80
2024/02/26 09:16:32;;;;;;;2.03;1.40;;;;;;;8.94;72.71;93826.19;5018068;28;20234;-81
2024/02/26 09:18:57;;;;;;;1.20;1.10;;;;;;;8.96;72.42;93828.59;5035324;28;20642;-81
2024/02/26 09:21:24;;;;;;;0.87;0.83;;;;;;;9.11;70.93;93831.19;5024082;28;20682;-80
2024/02/26 09:23:50;;;;;;;1.20;1.10;;;;;;;9.01;70.71;93832.28;5020641;28;20199;-80
2024/02/26 09:26:16;;;;;;;1.07;0.97;;;;;;;8.83;70.74;93843.94;5018563;28;20168;-80
2024/02/26 09:28:41;;;;;;;1.20;1.10;;;;;;;8.57;71.80;93837.44;5021136;28;20185;-80
2024/02/26 09:31:06;;;;;;;1.77;1.30;;;;;;;8.64;72.18;93846.06;5018201;28;20331;-81
2024/02/26 09:33:33;;;;;;;2.93;1.83;;;;;;;8.74;72.29;93845.81;5011764;28;20196;-81
2024/02/26 09:35:58;;;;;;;5.70;3.50;;;;;;;8.72;72.60;93843.41;5018890;28;20203;-81
2024/02/26 09:38:23;;;;;;;6.37;3.87;;;;;;;8.79;72.25;93843.50;5011949;28;20205;-81
2024/02/26 09:40:49;;;;;;;7.63;4.77;;;;;;;8.87;72.22;93842.63;5009110;28;20736;-80
2024/02/26 09:43:15;;;;;;;3.47;2.10;;;;;;;8.85;73.11;93847.97;5022241;28;20186;-79
2024/02/26 09:45:41;;;;;;;1.50;1.17;;;;;;;8.86;72.17;93847.00;5020296;28;20749;-79
2024/02/26 09:48:08;;;;;;;2.63;1.50;;;;;;;9.13;72.30;93837.78;5018474;28;20195;-80
2024/02/26 09:50:33;;;;;;;1.40;1.07;;;;;;;9.35;71.96;93839.44;5008328;28;20632;-79
2024/02/26 09:53:00;;;;;;;1.10;1.00;;;;;;;9.54;70.25;93848.44;5020999;28;20198;-80
2024/02/26 09:55:25;;;;;;;1.60;1.20;;;;;;;9.73;70.59;93857.41;5016737;28;20310;-80
2024/02/26 09:57:51;;;;;;;2.73;1.07;;;;;;;9.75;68.95;93865.00;5011379;28;20745;-80
2024/02/26 10:00:21;;;;;;;1.20;0.77;;;;;;;9.76;69.14;93864.81;5018436;28;20179;-80
2024/02/26 10:02:50;;;;;;;2.27;0.97;;;;;;;9.73;69.02;93862.59;5018410;28;20250;-80
2024/02/26 10:05:22;;;;;;;3.37;2.37;;;;;;;9.96;69.05;93857.25;5017430;28;20584;-80
2024/02/26 10:07:47;;;;;;;1.67;1.57;;;;;;;9.97;68.84;93863.22;5020913;28;20187;-80
2024/02/26 10:10:14;;;;;;;1.47;1.00;;;;;;;9.64;69.18;93861.13;5006019;28;20193;-79
2024/02/26 10:12:39;;;;;;;1.80;1.10;;;;;;;9.90;68.49;93863.97;5005193;28;20672;-80
2024/02/26 10:15:05;;;;;;;2.33;1.20;;;;;;;9.77;67.83;93860.44;5007983;28;20211;-80
2024/02/26 10:17:30;;;;;;;1.17;0.90;;;;;;;9.97;67.51;93869.22;5018520;28;20187;-80
2024/02/26 10:20:11;;;;;;;0.87;0.73;;;;;;;9.96;67.03;93869.41;5014347;28;20582;-80
2024/02/26 10:22:36;;;;;;;1.60;0.80;;;;;;;10.10;66.24;93869.34;5015852;28;20633;-80
2024/02/26 10:25:02;;;;;;;1.43;0.83;;;;;;;10.24;66.18;93870.28;5001161;28;20216;-80
2024/02/26 10:27:28;;;;;;;1.27;0.80;;;;;;;10.30;66.32;93873.94;5016277;28;20215;-77
2024/02/26 10:29:56;;;;;;;0.93;0.83;;;;;;;10.53;65.83;93876.34;5006408;28;20195;-80
2024/02/26 10:32:22;;;;;;;1.93;0.80;;;;;;;10.52;64.96;93880.72;5019076;28;20187;-78
2024/02/26 10:34:47;;;;;;;2.47;1.10;;;;;;;10.74;65.33;93882.28;5020477;28;20620;-80
2024/02/26 10:37:13;;;;;;;1.73;1.23;;;;;;;10.75;65.42;93894.28;5014648;28;20202;-79
2024/02/26 10:39:39;;;;;;;2.23;1.37;;;;;;;10.88;64.34;93896.19;5012783;28;20209;-79
2024/02/26 10:42:09;;;;;;;2.77;0.90;;;;;;;10.88;63.91;93898.78;5018741;28;20194;-80
2024/02/26 10:44:34;;;;;;;1.43;0.90;;;;;;;11.03;64.38;93896.06;5022296;28;20199;-80
2024/02/26 10:47:00;;;;;;;1.20;0.90;;;;;;;11.07;64.28;93905.88;5009314;28;20184;-79
2024/02/26 10:49:25;;;;;;;2.47;0.83;;;;;;;10.89;64.11;93904.78;5011044;28;20566;-80
2024/02/26 10:51:56;;;;;;;0.80;0.80;;;;;;;11.10;63.47;93914.28;5014480;28;20192;-79
2024/02/26 10:54:24;;;;;;;1.10;0.80;;;;;;;11.01;62.95;93906.63;5025042;28;20983;-80
2024/02/26 10:56:50;;;;;;;0.90;0.70;;;;;;;11.15;62.83;93904.94;5005932;28;20587;-80
2024/02/26 10:59:20;;;;;;;0.60;0.60;;;;;;;10.96;62.15;93906.44;5016180;28;20195;-80
2024/02/26 11:01:48;;;;;;;0.80;0.80;;;;;;;11.16;62.51;93903.16;5007980;28;20199;-80
2024/02/26 11:04:15;;;;;;;1.10;0.70;;;;;;;11.39;61.37;93906.25;5014588;28;20207;-80
2024/02/26 11:06:41;;;;;;;0.70;0.70;;;;;;;11.37;60.78;93915.25;5005715;28;20549;-80
2024/02/26 11:09:06;;;;;;;0.77;0.77;;;;;;;11.46;60.94;93911.50;5017011;28;20193;-79
2024/02/26 11:11:34;;;;;;;1.07;0.80;;;;;;;11.40;60.10;93912.28;5011898;28;20187;-80
2024/02/26 11:14:01;;;;;;;0.90;0.90;;;;;;;11.63;60.77;93913.56;5014409;28;20214;-79
2024/02/26 11:16:27;;;;;;;1.57;0.80;;;;;;;11.61;60.53;93925.97;5004400;28;20195;-78
2024/02/26 11:18:55;;;;;;;0.80;0.60;;;;;;;11.70;60.16;93921.41;5004505;28;20253;-79
2024/02/26 11:21:27;;;;;;;0.50;0.43;;;;;;;11.62;59.98;93921.56;5002745;28;20183;-79
2024/02/26 11:23:53;;;;;;;0.60;0.60;;;;;;;11.60;59.10;93919.16;5004258;28;20293;-79
2024/02/26 11:26:19;;;;;;;0.63;0.57;;;;;;;11.69;59.60;93925.00;5016273;28;20550;-79
2024/02/26 11:28:45;;;;;;;0.60;0.60;;;;;;;11.68;59.28;93922.59;5015501;28;20280;-80
2024/02/26 11:31:10;;;;;;;0.70;0.70;;;;;;;11.78;60.18;93923.03;5015852;28;20199;-79
2024/02/26 11:33:36;;;;;;;1.83;0.60;;;;;;;11.98;59.28;93916.13;5006716;28;20281;-80